sensor_id;sensor_type;location;lat;lon;timestamp;P1;durP1;ratioP1;P2;durP2;ratioP2
62523;SDS011;53689;56.878;60.672;2023-08-21T00:00:06;15.23;;;10.20;;
62523;SDS011;53689;56.878;60.672;2023-08-21T00:02:37;21.13;;;14.45;;
62523;SDS011;53689;56.878;60.672;2023-08-21T00:05:05;11.80;;;6.25;;
62523;SDS011;53689;56.878;60.672;2023-08-21T00:07:33;9.70;;;5.57;;
62523;SDS011;53689;56.878;60.672;2023-08-21T00:10:03;11.23;;;5.47;;
62523;SDS011;53689;56.878;60.672;2023-08-21T00:12:31;13.57;;;6.28;;
62523;SDS011;53689;56.878;60.672;2023-08-21T00:14:59;15.77;;;11.38;;
62523;SDS011;53689;56.878;60.672;2023-08-21T00:17:27;16.30;;;11.25;;
62523;SDS011;53689;56.878;60.672;2023-08-21T00:19:54;14.35;;;9.77;;
62523;SDS011;53689;56.878;60.672;2023-08-21T00:22:22;12.75;;;8.52;;
62523;SDS011;53689;56.878;60.672;2023-08-21T00:24:50;13.32;;;9.15;;
62523;SDS011;53689;56.878;60.672;2023-08-21T00:27:19;10.65;;;7.47;;
62523;SDS011;53689;56.878;60.672;2023-08-21T00:29:47;11.52;;;7.22;;
62523;SDS011;53689;56.878;60.672;2023-08-21T00:32:14;10.57;;;7.38;;
62523;SDS011;53689;56.878;60.672;2023-08-21T00:34:42;15.23;;;10.32;;
62523;SDS011;53689;56.878;60.672;2023-08-21T00:37:10;13.63;;;9.57;;
62523;SDS011;53689;56.878;60.672;2023-08-21T00:39:37;12.88;;;8.45;;
62523;SDS011;53689;56.878;60.672;2023-08-21T00:42:05;15.45;;;10.05;;
62523;SDS011;53689;56.878;60.672;2023-08-21T00:44:35;13.52;;;8.77;;
62523;SDS011;53689;56.878;60.672;2023-08-21T00:49:31;13.55;;;8.13;;
62523;SDS011;53689;56.878;60.672;2023-08-21T00:52:00;12.68;;;8.10;;
62523;SDS011;53689;56.878;60.672;2023-08-21T00:54:30;10.00;;;7.00;;
62523;SDS011;53689;56.878;60.672;2023-08-21T00:56:58;10.75;;;5.50;;
62523;SDS011;53689;56.878;60.672;2023-08-21T00:59:26;8.88;;;5.15;;
62523;SDS011;53689;56.878;60.672;2023-08-21T01:01:56;8.77;;;5.25;;
62523;SDS011;53689;56.878;60.672;2023-08-21T01:04:23;8.13;;;5.07;;
62523;SDS011;53689;56.878;60.672;2023-08-21T01:06:51;9.13;;;4.90;;
62523;SDS011;53689;56.878;60.672;2023-08-21T01:09:22;7.43;;;4.80;;
62523;SDS011;53689;56.878;60.672;2023-08-21T01:12:01;8.25;;;5.13;;
62523;SDS011;53689;56.878;60.672;2023-08-21T01:14:36;8.07;;;4.43;;
62523;SDS011;53689;56.878;60.672;2023-08-21T01:17:11;9.10;;;5.38;;
62523;SDS011;53689;56.878;60.672;2023-08-21T01:19:41;9.43;;;6.38;;
62523;SDS011;53689;56.878;60.672;2023-08-21T01:22:10;10.68;;;6.03;;
62523;SDS011;53689;56.878;60.672;2023-08-21T01:24:40;7.97;;;4.30;;
62523;SDS011;53689;56.878;60.672;2023-08-21T01:27:08;8.52;;;4.15;;
62523;SDS011;53689;56.878;60.672;2023-08-21T01:29:40;8.43;;;4.82;;
62523;SDS011;53689;56.878;60.672;2023-08-21T01:32:09;8.50;;;3.97;;
62523;SDS011;53689;56.878;60.672;2023-08-21T01:34:48;8.75;;;3.90;;
62523;SDS011;53689;56.878;60.672;2023-08-21T01:37:18;8.55;;;4.13;;
62523;SDS011;53689;56.878;60.672;2023-08-21T01:39:50;7.03;;;4.20;;
62523;SDS011;53689;56.878;60.672;2023-08-21T01:42:19;7.20;;;3.75;;
62523;SDS011;53689;56.878;60.672;2023-08-21T01:44:47;14.40;;;9.18;;
62523;SDS011;53689;56.878;60.672;2023-08-21T01:47:14;14.95;;;9.55;;
62523;SDS011;53689;56.878;60.672;2023-08-21T01:49:42;12.27;;;7.22;;
62523;SDS011;53689;56.878;60.672;2023-08-21T01:52:11;10.27;;;6.60;;
62523;SDS011;53689;56.878;60.672;2023-08-21T01:54:39;9.15;;;6.03;;
62523;SDS011;53689;56.878;60.672;2023-08-21T01:57:08;8.60;;;5.32;;
62523;SDS011;53689;56.878;60.672;2023-08-21T01:59:36;8.73;;;4.50;;
62523;SDS011;53689;56.878;60.672;2023-08-21T02:02:04;7.07;;;3.95;;
62523;SDS011;53689;56.878;60.672;2023-08-21T02:04:31;7.60;;;4.07;;
62523;SDS011;53689;56.878;60.672;2023-08-21T02:06:59;6.25;;;4.15;;
62523;SDS011;53689;56.878;60.672;2023-08-21T02:09:27;7.43;;;4.00;;
62523;SDS011;53689;56.878;60.672;2023-08-21T02:11:54;11.32;;;4.13;;
62523;SDS011;53689;56.878;60.672;2023-08-21T02:14:23;7.07;;;3.70;;
62523;SDS011;53689;56.878;60.672;2023-08-21T02:16:51;10.90;;;4.63;;
62523;SDS011;53689;56.878;60.672;2023-08-21T02:19:18;12.35;;;7.00;;
62523;SDS011;53689;56.878;60.672;2023-08-21T02:21:46;11.23;;;6.53;;
62523;SDS011;53689;56.878;60.672;2023-08-21T02:24:14;9.82;;;5.38;;
62523;SDS011;53689;56.878;60.672;2023-08-21T02:26:43;10.93;;;5.17;;
62523;SDS011;53689;56.878;60.672;2023-08-21T02:29:11;12.10;;;4.40;;
62523;SDS011;53689;56.878;60.672;2023-08-21T02:31:40;9.75;;;4.82;;
62523;SDS011;53689;56.878;60.672;2023-08-21T02:34:08;8.23;;;4.30;;
62523;SDS011;53689;56.878;60.672;2023-08-21T02:36:36;41.20;;;28.60;;
62523;SDS011;53689;56.878;60.672;2023-08-21T02:39:03;25.20;;;16.83;;
62523;SDS011;53689;56.878;60.672;2023-08-21T02:41:31;14.27;;;7.85;;
62523;SDS011;53689;56.878;60.672;2023-08-21T02:43:59;11.60;;;4.95;;
62523;SDS011;53689;56.878;60.672;2023-08-21T02:46:27;8.68;;;5.00;;
62523;SDS011;53689;56.878;60.672;2023-08-21T02:48:56;7.35;;;4.20;;
62523;SDS011;53689;56.878;60.672;2023-08-21T02:51:24;9.60;;;4.50;;
62523;SDS011;53689;56.878;60.672;2023-08-21T02:53:51;7.68;;;3.97;;
62523;SDS011;53689;56.878;60.672;2023-08-21T02:56:19;11.23;;;4.97;;
62523;SDS011;53689;56.878;60.672;2023-08-21T02:58:46;12.52;;;6.70;;
62523;SDS011;53689;56.878;60.672;2023-08-21T03:01:14;11.43;;;5.43;;
62523;SDS011;53689;56.878;60.672;2023-08-21T03:03:42;9.55;;;4.28;;
62523;SDS011;53689;56.878;60.672;2023-08-21T03:06:11;9.07;;;5.05;;
62523;SDS011;53689;56.878;60.672;2023-08-21T03:08:38;9.98;;;4.60;;
62523;SDS011;53689;56.878;60.672;2023-08-21T03:11:06;6.38;;;4.30;;
62523;SDS011;53689;56.878;60.672;2023-08-21T03:13:34;9.55;;;4.30;;
62523;SDS011;53689;56.878;60.672;2023-08-21T03:16:01;7.68;;;4.05;;
62523;SDS011;53689;56.878;60.672;2023-08-21T03:18:30;12.90;;;4.65;;
62523;SDS011;53689;56.878;60.672;2023-08-21T03:20:59;7.15;;;4.00;;
62523;SDS011;53689;56.878;60.672;2023-08-21T03:23:29;8.73;;;4.25;;
62523;SDS011;53689;56.878;60.672;2023-08-21T03:25:56;12.23;;;5.15;;
62523;SDS011;53689;56.878;60.672;2023-08-21T03:28:24;12.90;;;4.88;;
62523;SDS011;53689;56.878;60.672;2023-08-21T03:30:52;11.13;;;5.60;;
62523;SDS011;53689;56.878;60.672;2023-08-21T03:33:20;15.30;;;5.20;;
62523;SDS011;53689;56.878;60.672;2023-08-21T03:35:53;11.98;;;4.57;;
62523;SDS011;53689;56.878;60.672;2023-08-21T03:38:22;8.85;;;4.07;;
62523;SDS011;53689;56.878;60.672;2023-08-21T03:40:52;8.73;;;4.40;;
62523;SDS011;53689;56.878;60.672;2023-08-21T03:43:19;7.68;;;3.97;;
62523;SDS011;53689;56.878;60.672;2023-08-21T03:45:47;8.35;;;4.07;;
62523;SDS011;53689;56.878;60.672;2023-08-21T03:48:14;9.43;;;4.18;;
62523;SDS011;53689;56.878;60.672;2023-08-21T03:50:42;9.00;;;4.10;;
62523;SDS011;53689;56.878;60.672;2023-08-21T03:53:10;10.55;;;4.00;;
62523;SDS011;53689;56.878;60.672;2023-08-21T03:55:38;9.90;;;4.07;;
62523;SDS011;53689;56.878;60.672;2023-08-21T03:58:09;8.55;;;4.22;;
62523;SDS011;53689;56.878;60.672;2023-08-21T04:00:37;10.75;;;4.30;;
62523;SDS011;53689;56.878;60.672;2023-08-21T04:03:05;12.73;;;5.20;;
62523;SDS011;53689;56.878;60.672;2023-08-21T04:05:33;9.93;;;4.20;;
62523;SDS011;53689;56.878;60.672;2023-08-21T04:08:00;9.50;;;4.60;;
62523;SDS011;53689;56.878;60.672;2023-08-21T04:10:28;9.95;;;4.53;;
62523;SDS011;53689;56.878;60.672;2023-08-21T04:12:56;10.10;;;4.18;;
62523;SDS011;53689;56.878;60.672;2023-08-21T04:15:25;8.93;;;4.50;;
62523;SDS011;53689;56.878;60.672;2023-08-21T04:17:53;9.95;;;4.18;;
62523;SDS011;53689;56.878;60.672;2023-08-21T04:20:21;11.05;;;4.60;;
62523;SDS011;53689;56.878;60.672;2023-08-21T04:22:48;8.40;;;4.18;;
62523;SDS011;53689;56.878;60.672;2023-08-21T04:25:16;9.77;;;4.25;;
62523;SDS011;53689;56.878;60.672;2023-08-21T04:27:44;9.02;;;4.43;;
62523;SDS011;53689;56.878;60.672;2023-08-21T04:30:12;7.03;;;3.97;;
62523;SDS011;53689;56.878;60.672;2023-08-21T04:32:41;8.75;;;4.40;;
62523;SDS011;53689;56.878;60.672;2023-08-21T04:35:09;8.75;;;4.47;;
62523;SDS011;53689;56.878;60.672;2023-08-21T04:37:37;7.25;;;3.97;;
62523;SDS011;53689;56.878;60.672;2023-08-21T04:40:11;8.07;;;4.05;;
62523;SDS011;53689;56.878;60.672;2023-08-21T04:42:39;8.27;;;4.20;;
62523;SDS011;53689;56.878;60.672;2023-08-21T04:45:07;13.30;;;4.20;;
62523;SDS011;53689;56.878;60.672;2023-08-21T04:47:37;19.95;;;5.50;;
62523;SDS011;53689;56.878;60.672;2023-08-21T04:50:07;13.65;;;4.80;;
62523;SDS011;53689;56.878;60.672;2023-08-21T04:52:35;9.98;;;4.05;;
62523;SDS011;53689;56.878;60.672;2023-08-21T04:55:04;12.80;;;4.22;;
62523;SDS011;53689;56.878;60.672;2023-08-21T04:57:34;9.85;;;4.38;;
62523;SDS011;53689;56.878;60.672;2023-08-21T05:00:06;12.27;;;4.53;;
62523;SDS011;53689;56.878;60.672;2023-08-21T05:02:38;9.52;;;4.15;;
62523;SDS011;53689;56.878;60.672;2023-08-21T05:05:08;11.27;;;4.13;;
62523;SDS011;53689;56.878;60.672;2023-08-21T05:07:36;12.95;;;4.78;;
62523;SDS011;53689;56.878;60.672;2023-08-21T05:10:04;9.93;;;4.00;;
62523;SDS011;53689;56.878;60.672;2023-08-21T05:12:35;9.48;;;3.72;;
62523;SDS011;53689;56.878;60.672;2023-08-21T05:15:04;10.18;;;4.05;;
62523;SDS011;53689;56.878;60.672;2023-08-21T05:17:33;9.38;;;4.15;;
62523;SDS011;53689;56.878;60.672;2023-08-21T05:20:02;10.52;;;4.45;;
62523;SDS011;53689;56.878;60.672;2023-08-21T05:22:33;12.07;;;4.70;;
62523;SDS011;53689;56.878;60.672;2023-08-21T05:25:02;14.77;;;4.53;;
62523;SDS011;53689;56.878;60.672;2023-08-21T05:27:29;10.55;;;4.20;;
62523;SDS011;53689;56.878;60.672;2023-08-21T05:29:57;11.02;;;3.80;;
62523;SDS011;53689;56.878;60.672;2023-08-21T05:32:25;9.77;;;4.07;;
62523;SDS011;53689;56.878;60.672;2023-08-21T05:34:54;19.15;;;4.85;;
62523;SDS011;53689;56.878;60.672;2023-08-21T05:37:22;16.42;;;5.00;;
62523;SDS011;53689;56.878;60.672;2023-08-21T05:39:51;16.20;;;6.97;;
62523;SDS011;53689;56.878;60.672;2023-08-21T05:42:19;17.42;;;5.72;;
62523;SDS011;53689;56.878;60.672;2023-08-21T05:44:47;15.05;;;5.85;;
62523;SDS011;53689;56.878;60.672;2023-08-21T05:47:15;16.98;;;6.25;;
62523;SDS011;53689;56.878;60.672;2023-08-21T05:49:43;16.23;;;5.03;;
62523;SDS011;53689;56.878;60.672;2023-08-21T05:52:11;13.70;;;4.57;;
62523;SDS011;53689;56.878;60.672;2023-08-21T05:54:39;14.88;;;4.97;;
62523;SDS011;53689;56.878;60.672;2023-08-21T05:57:08;10.88;;;6.15;;
62523;SDS011;53689;56.878;60.672;2023-08-21T05:59:42;18.60;;;6.13;;
62523;SDS011;53689;56.878;60.672;2023-08-21T06:02:11;15.32;;;5.75;;
62523;SDS011;53689;56.878;60.672;2023-08-21T06:04:39;20.48;;;5.90;;
62523;SDS011;53689;56.878;60.672;2023-08-21T06:07:08;12.63;;;4.90;;
62523;SDS011;53689;56.878;60.672;2023-08-21T06:09:36;15.40;;;4.72;;
62523;SDS011;53689;56.878;60.672;2023-08-21T06:12:09;9.75;;;4.78;;
62523;SDS011;53689;56.878;60.672;2023-08-21T06:14:39;11.48;;;4.55;;
62523;SDS011;53689;56.878;60.672;2023-08-21T06:17:08;14.57;;;4.18;;
62523;SDS011;53689;56.878;60.672;2023-08-21T06:19:36;11.10;;;4.03;;
62523;SDS011;53689;56.878;60.672;2023-08-21T06:22:04;12.60;;;4.25;;
62523;SDS011;53689;56.878;60.672;2023-08-21T06:24:32;11.55;;;4.10;;
62523;SDS011;53689;56.878;60.672;2023-08-21T06:27:02;14.15;;;4.05;;
62523;SDS011;53689;56.878;60.672;2023-08-21T06:29:35;9.05;;;4.15;;
62523;SDS011;53689;56.878;60.672;2023-08-21T06:32:03;9.27;;;3.85;;
62523;SDS011;53689;56.878;60.672;2023-08-21T06:34:31;10.27;;;4.07;;
62523;SDS011;53689;56.878;60.672;2023-08-21T06:36:59;11.13;;;4.15;;
62523;SDS011;53689;56.878;60.672;2023-08-21T06:39:27;6.47;;;4.15;;
62523;SDS011;53689;56.878;60.672;2023-08-21T06:41:55;11.88;;;4.00;;
62523;SDS011;53689;56.878;60.672;2023-08-21T06:44:30;10.35;;;4.88;;
62523;SDS011;53689;56.878;60.672;2023-08-21T06:47:00;9.37;;;4.20;;
62523;SDS011;53689;56.878;60.672;2023-08-21T06:51:56;10.57;;;4.93;;
62523;SDS011;53689;56.878;60.672;2023-08-21T06:54:24;9.35;;;4.57;;
62523;SDS011;53689;56.878;60.672;2023-08-21T06:56:52;13.32;;;5.13;;
62523;SDS011;53689;56.878;60.672;2023-08-21T06:59:20;8.52;;;4.18;;
62523;SDS011;53689;56.878;60.672;2023-08-21T07:01:48;11.00;;;6.53;;
62523;SDS011;53689;56.878;60.672;2023-08-21T07:04:17;14.15;;;7.03;;
62523;SDS011;53689;56.878;60.672;2023-08-21T07:06:46;13.80;;;6.75;;
62523;SDS011;53689;56.878;60.672;2023-08-21T07:09:14;19.35;;;7.38;;
62523;SDS011;53689;56.878;60.672;2023-08-21T07:11:42;14.02;;;7.55;;
62523;SDS011;53689;56.878;60.672;2023-08-21T07:14:10;13.00;;;6.68;;
62523;SDS011;53689;56.878;60.672;2023-08-21T07:16:38;11.05;;;7.00;;
62523;SDS011;53689;56.878;60.672;2023-08-21T07:19:07;13.27;;;6.80;;
62523;SDS011;53689;56.878;60.672;2023-08-21T07:21:37;17.10;;;7.55;;
62523;SDS011;53689;56.878;60.672;2023-08-21T07:24:05;11.57;;;6.40;;
62523;SDS011;53689;56.878;60.672;2023-08-21T07:26:33;21.02;;;6.93;;
62523;SDS011;53689;56.878;60.672;2023-08-21T07:29:01;17.83;;;7.20;;
62523;SDS011;53689;56.878;60.672;2023-08-21T07:31:30;18.60;;;6.40;;
62523;SDS011;53689;56.878;60.672;2023-08-21T07:33:58;14.13;;;6.38;;
62523;SDS011;53689;56.878;60.672;2023-08-21T07:36:26;12.98;;;6.82;;
62523;SDS011;53689;56.878;60.672;2023-08-21T07:38:56;11.98;;;6.43;;
62523;SDS011;53689;56.878;60.672;2023-08-21T07:41:24;12.85;;;6.40;;
62523;SDS011;53689;56.878;60.672;2023-08-21T07:46:20;13.38;;;6.07;;
62523;SDS011;53689;56.878;60.672;2023-08-21T07:48:49;11.18;;;6.00;;
62523;SDS011;53689;56.878;60.672;2023-08-21T07:51:17;11.38;;;5.85;;
62523;SDS011;53689;56.878;60.672;2023-08-21T07:53:45;11.35;;;5.97;;
62523;SDS011;53689;56.878;60.672;2023-08-21T07:56:14;11.00;;;6.30;;
62523;SDS011;53689;56.878;60.672;2023-08-21T07:58:42;11.70;;;5.75;;
62523;SDS011;53689;56.878;60.672;2023-08-21T08:01:10;9.97;;;5.90;;
62523;SDS011;53689;56.878;60.672;2023-08-21T08:03:38;14.10;;;6.55;;
62523;SDS011;53689;56.878;60.672;2023-08-21T08:06:06;12.98;;;5.90;;
62523;SDS011;53689;56.878;60.672;2023-08-21T08:08:34;12.48;;;6.22;;
62523;SDS011;53689;56.878;60.672;2023-08-21T08:11:02;14.45;;;6.38;;
62523;SDS011;53689;56.878;60.672;2023-08-21T08:13:32;12.25;;;6.22;;
62523;SDS011;53689;56.878;60.672;2023-08-21T08:15:59;14.80;;;6.43;;
62523;SDS011;53689;56.878;60.672;2023-08-21T08:18:28;14.18;;;6.40;;
62523;SDS011;53689;56.878;60.672;2023-08-21T08:20:56;13.10;;;6.05;;
62523;SDS011;53689;56.878;60.672;2023-08-21T08:23:23;12.73;;;5.75;;
62523;SDS011;53689;56.878;60.672;2023-08-21T08:25:51;12.75;;;5.70;;
62523;SDS011;53689;56.878;60.672;2023-08-21T08:28:20;12.23;;;7.15;;
62523;SDS011;53689;56.878;60.672;2023-08-21T08:30:49;11.82;;;6.25;;
62523;SDS011;53689;56.878;60.672;2023-08-21T08:33:17;10.55;;;6.22;;
62523;SDS011;53689;56.878;60.672;2023-08-21T08:35:45;9.50;;;5.53;;
62523;SDS011;53689;56.878;60.672;2023-08-21T08:38:13;10.85;;;5.75;;
62523;SDS011;53689;56.878;60.672;2023-08-21T08:40:42;11.15;;;5.57;;
62523;SDS011;53689;56.878;60.672;2023-08-21T08:43:12;11.32;;;5.95;;
62523;SDS011;53689;56.878;60.672;2023-08-21T08:45:40;12.32;;;6.70;;
62523;SDS011;53689;56.878;60.672;2023-08-21T08:48:10;12.15;;;6.43;;
62523;SDS011;53689;56.878;60.672;2023-08-21T08:50:40;10.32;;;6.57;;
62523;SDS011;53689;56.878;60.672;2023-08-21T08:53:09;11.75;;;6.32;;
62523;SDS011;53689;56.878;60.672;2023-08-21T08:55:43;9.77;;;6.22;;
62523;SDS011;53689;56.878;60.672;2023-08-21T08:58:11;10.93;;;6.32;;
62523;SDS011;53689;56.878;60.672;2023-08-21T09:00:39;10.18;;;6.70;;
62523;SDS011;53689;56.878;60.672;2023-08-21T09:03:10;17.50;;;9.15;;
62523;SDS011;53689;56.878;60.672;2023-08-21T09:05:38;13.13;;;6.00;;
62523;SDS011;53689;56.878;60.672;2023-08-21T09:08:10;11.52;;;6.30;;
62523;SDS011;53689;56.878;60.672;2023-08-21T09:10:39;11.60;;;6.05;;
62523;SDS011;53689;56.878;60.672;2023-08-21T09:13:09;9.57;;;6.38;;
62523;SDS011;53689;56.878;60.672;2023-08-21T09:15:38;10.93;;;6.18;;
62523;SDS011;53689;56.878;60.672;2023-08-21T09:18:09;10.38;;;6.40;;
62523;SDS011;53689;56.878;60.672;2023-08-21T09:20:38;9.77;;;5.93;;
62523;SDS011;53689;56.878;60.672;2023-08-21T09:23:06;10.07;;;6.55;;
62523;SDS011;53689;56.878;60.672;2023-08-21T09:25:34;11.98;;;6.13;;
62523;SDS011;53689;56.878;60.672;2023-08-21T09:28:03;11.15;;;5.80;;
62523;SDS011;53689;56.878;60.672;2023-08-21T09:30:43;11.00;;;5.55;;
62523;SDS011;53689;56.878;60.672;2023-08-21T09:33:12;9.90;;;5.45;;
62523;SDS011;53689;56.878;60.672;2023-08-21T09:35:40;14.82;;;5.88;;
62523;SDS011;53689;56.878;60.672;2023-08-21T09:38:10;11.65;;;5.63;;
62523;SDS011;53689;56.878;60.672;2023-08-21T09:40:41;10.35;;;5.75;;
62523;SDS011;53689;56.878;60.672;2023-08-21T09:43:11;13.70;;;6.72;;
62523;SDS011;53689;56.878;60.672;2023-08-21T09:45:39;11.52;;;5.65;;
62523;SDS011;53689;56.878;60.672;2023-08-21T09:48:07;16.95;;;5.93;;
62523;SDS011;53689;56.878;60.672;2023-08-21T09:50:37;12.65;;;5.80;;
62523;SDS011;53689;56.878;60.672;2023-08-21T09:53:06;12.85;;;6.07;;
62523;SDS011;53689;56.878;60.672;2023-08-21T09:55:34;9.57;;;5.97;;
62523;SDS011;53689;56.878;60.672;2023-08-21T09:58:02;15.52;;;6.40;;
62523;SDS011;53689;56.878;60.672;2023-08-21T10:00:30;12.25;;;6.57;;
62523;SDS011;53689;56.878;60.672;2023-08-21T10:03:00;11.95;;;6.43;;
62523;SDS011;53689;56.878;60.672;2023-08-21T10:05:29;13.43;;;7.05;;
62523;SDS011;53689;56.878;60.672;2023-08-21T10:08:00;15.67;;;6.93;;
62523;SDS011;53689;56.878;60.672;2023-08-21T10:10:30;11.98;;;6.07;;
62523;SDS011;53689;56.878;60.672;2023-08-21T10:12:58;16.77;;;6.88;;
62523;SDS011;53689;56.878;60.672;2023-08-21T10:15:27;16.80;;;7.75;;
62523;SDS011;53689;56.878;60.672;2023-08-21T10:17:55;14.07;;;7.00;;
62523;SDS011;53689;56.878;60.672;2023-08-21T10:20:24;12.18;;;6.50;;
62523;SDS011;53689;56.878;60.672;2023-08-21T10:22:53;13.60;;;6.63;;
62523;SDS011;53689;56.878;60.672;2023-08-21T10:25:24;12.98;;;6.25;;
62523;SDS011;53689;56.878;60.672;2023-08-21T10:27:57;13.85;;;6.82;;
62523;SDS011;53689;56.878;60.672;2023-08-21T10:30:26;12.88;;;6.63;;
62523;SDS011;53689;56.878;60.672;2023-08-21T10:32:56;14.57;;;6.00;;
62523;SDS011;53689;56.878;60.672;2023-08-21T10:35:25;12.90;;;6.30;;
62523;SDS011;53689;56.878;60.672;2023-08-21T10:38:06;12.98;;;6.43;;
62523;SDS011;53689;56.878;60.672;2023-08-21T10:40:36;11.82;;;6.35;;
62523;SDS011;53689;56.878;60.672;2023-08-21T10:43:14;10.85;;;5.40;;
62523;SDS011;53689;56.878;60.672;2023-08-21T10:46:05;10.40;;;6.55;;
62523;SDS011;53689;56.878;60.672;2023-08-21T10:48:36;12.65;;;6.57;;
62523;SDS011;53689;56.878;60.672;2023-08-21T10:51:05;14.32;;;7.57;;
62523;SDS011;53689;56.878;60.672;2023-08-21T10:53:33;14.63;;;7.70;;
62523;SDS011;53689;56.878;60.672;2023-08-21T10:56:03;13.80;;;6.05;;
62523;SDS011;53689;56.878;60.672;2023-08-21T10:58:34;10.77;;;6.10;;
62523;SDS011;53689;56.878;60.672;2023-08-21T11:01:04;14.98;;;6.45;;
62523;SDS011;53689;56.878;60.672;2023-08-21T11:03:33;9.32;;;6.13;;
62523;SDS011;53689;56.878;60.672;2023-08-21T11:06:01;20.45;;;7.63;;
62523;SDS011;53689;56.878;60.672;2023-08-21T11:10:58;20.00;;;8.30;;
62523;SDS011;53689;56.878;60.672;2023-08-21T11:13:27;36.67;;;10.88;;
62523;SDS011;53689;56.878;60.672;2023-08-21T11:15:58;41.60;;;10.63;;
62523;SDS011;53689;56.878;60.672;2023-08-21T11:18:30;31.75;;;9.27;;
62523;SDS011;53689;56.878;60.672;2023-08-21T11:21:05;25.65;;;8.15;;
62523;SDS011;53689;56.878;60.672;2023-08-21T11:23:34;30.40;;;10.00;;
62523;SDS011;53689;56.878;60.672;2023-08-21T11:26:02;22.77;;;7.45;;
62523;SDS011;53689;56.878;60.672;2023-08-21T11:28:47;27.23;;;7.78;;
62523;SDS011;53689;56.878;60.672;2023-08-21T11:31:15;15.32;;;6.60;;
62523;SDS011;53689;56.878;60.672;2023-08-21T11:33:48;13.18;;;6.07;;
62523;SDS011;53689;56.878;60.672;2023-08-21T11:36:16;15.55;;;6.05;;
62523;SDS011;53689;56.878;60.672;2023-08-21T11:38:57;12.45;;;5.20;;
62523;SDS011;53689;56.878;60.672;2023-08-21T11:41:25;12.70;;;5.72;;
62523;SDS011;53689;56.878;60.672;2023-08-21T11:43:57;10.77;;;5.13;;
62523;SDS011;53689;56.878;60.672;2023-08-21T11:46:29;11.75;;;5.13;;
62523;SDS011;53689;56.878;60.672;2023-08-21T11:48:56;11.75;;;5.45;;
62523;SDS011;53689;56.878;60.672;2023-08-21T11:51:24;10.43;;;4.85;;
62523;SDS011;53689;56.878;60.672;2023-08-21T11:53:52;10.27;;;4.80;;
62523;SDS011;53689;56.878;60.672;2023-08-21T11:56:19;9.15;;;4.65;;
62523;SDS011;53689;56.878;60.672;2023-08-21T11:58:50;7.90;;;5.18;;
62523;SDS011;53689;56.878;60.672;2023-08-21T12:01:19;9.25;;;4.95;;
62523;SDS011;53689;56.878;60.672;2023-08-21T12:03:47;8.15;;;4.43;;
62523;SDS011;53689;56.878;60.672;2023-08-21T12:06:15;10.38;;;4.47;;
62523;SDS011;53689;56.878;60.672;2023-08-21T12:08:44;9.13;;;4.60;;
62523;SDS011;53689;56.878;60.672;2023-08-21T12:11:12;9.88;;;4.88;;
62523;SDS011;53689;56.878;60.672;2023-08-21T12:13:40;7.93;;;4.20;;
62523;SDS011;53689;56.878;60.672;2023-08-21T12:16:07;7.82;;;4.43;;
62523;SDS011;53689;56.878;60.672;2023-08-21T12:18:37;8.63;;;4.57;;
62523;SDS011;53689;56.878;60.672;2023-08-21T12:21:04;7.15;;;4.80;;
62523;SDS011;53689;56.878;60.672;2023-08-21T12:23:32;7.82;;;4.20;;
62523;SDS011;53689;56.878;60.672;2023-08-21T12:26:00;9.18;;;3.90;;
62523;SDS011;53689;56.878;60.672;2023-08-21T12:28:28;7.90;;;4.00;;
62523;SDS011;53689;56.878;60.672;2023-08-21T12:30:55;8.18;;;3.95;;
62523;SDS011;53689;56.878;60.672;2023-08-21T12:33:23;6.70;;;4.30;;
62523;SDS011;53689;56.878;60.672;2023-08-21T12:35:52;7.40;;;4.15;;
62523;SDS011;53689;56.878;60.672;2023-08-21T12:38:20;7.18;;;3.65;;
62523;SDS011;53689;56.878;60.672;2023-08-21T12:40:48;8.23;;;4.28;;
62523;SDS011;53689;56.878;60.672;2023-08-21T12:43:16;8.25;;;4.22;;
62523;SDS011;53689;56.878;60.672;2023-08-21T12:45:43;7.90;;;3.40;;
62523;SDS011;53689;56.878;60.672;2023-08-21T12:48:11;7.35;;;3.88;;
62523;SDS011;53689;56.878;60.672;2023-08-21T12:50:39;9.30;;;3.88;;
62523;SDS011;53689;56.878;60.672;2023-08-21T12:53:08;12.55;;;4.32;;
62523;SDS011;53689;56.878;60.672;2023-08-21T12:55:35;10.95;;;3.80;;
62523;SDS011;53689;56.878;60.672;2023-08-21T12:58:03;13.45;;;4.10;;
62523;SDS011;53689;56.878;60.672;2023-08-21T13:00:31;9.55;;;3.70;;
62523;SDS011;53689;56.878;60.672;2023-08-21T13:02:58;8.90;;;3.60;;
62523;SDS011;53689;56.878;60.672;2023-08-21T13:05:26;6.72;;;3.28;;
62523;SDS011;53689;56.878;60.672;2023-08-21T13:07:54;13.27;;;4.03;;
62523;SDS011;53689;56.878;60.672;2023-08-21T13:10:24;9.50;;;3.65;;
62523;SDS011;53689;56.878;60.672;2023-08-21T13:12:51;8.30;;;3.83;;
62523;SDS011;53689;56.878;60.672;2023-08-21T13:15:19;6.95;;;4.10;;
62523;SDS011;53689;56.878;60.672;2023-08-21T13:17:48;6.90;;;4.00;;
62523;SDS011;53689;56.878;60.672;2023-08-21T13:20:15;11.05;;;3.70;;
62523;SDS011;53689;56.878;60.672;2023-08-21T13:22:44;6.53;;;3.30;;
62523;SDS011;53689;56.878;60.672;2023-08-21T13:25:14;7.07;;;3.60;;
62523;SDS011;53689;56.878;60.672;2023-08-21T13:27:44;8.30;;;3.13;;
62523;SDS011;53689;56.878;60.672;2023-08-21T13:30:13;5.45;;;3.13;;
62523;SDS011;53689;56.878;60.672;2023-08-21T13:32:42;5.33;;;3.37;;
62523;SDS011;53689;56.878;60.672;2023-08-21T13:35:10;8.20;;;3.15;;
62523;SDS011;53689;56.878;60.672;2023-08-21T13:37:39;8.70;;;3.90;;
62523;SDS011;53689;56.878;60.672;2023-08-21T13:40:07;6.43;;;3.33;;
62523;SDS011;53689;56.878;60.672;2023-08-21T13:42:39;7.03;;;3.33;;
62523;SDS011;53689;56.878;60.672;2023-08-21T13:45:10;5.57;;;3.22;;
62523;SDS011;53689;56.878;60.672;2023-08-21T13:47:38;10.18;;;3.58;;
62523;SDS011;53689;56.878;60.672;2023-08-21T13:50:07;7.25;;;3.08;;
62523;SDS011;53689;56.878;60.672;2023-08-21T13:52:35;6.13;;;3.20;;
62523;SDS011;53689;56.878;60.672;2023-08-21T13:55:04;5.50;;;2.93;;
62523;SDS011;53689;56.878;60.672;2023-08-21T13:57:34;5.20;;;3.10;;
62523;SDS011;53689;56.878;60.672;2023-08-21T14:00:03;7.03;;;3.23;;
62523;SDS011;53689;56.878;60.672;2023-08-21T14:02:34;6.30;;;3.10;;
62523;SDS011;53689;56.878;60.672;2023-08-21T14:07:30;6.22;;;3.08;;
62523;SDS011;53689;56.878;60.672;2023-08-21T14:09:57;5.40;;;3.00;;
62523;SDS011;53689;56.878;60.672;2023-08-21T14:12:27;5.97;;;3.38;;
62523;SDS011;53689;56.878;60.672;2023-08-21T14:14:57;7.57;;;2.92;;
62523;SDS011;53689;56.878;60.672;2023-08-21T14:17:25;5.75;;;2.70;;
62523;SDS011;53689;56.878;60.672;2023-08-21T14:19:56;6.35;;;3.00;;
62523;SDS011;53689;56.878;60.672;2023-08-21T14:22:23;6.45;;;3.38;;
62523;SDS011;53689;56.878;60.672;2023-08-21T14:24:51;7.25;;;3.05;;
62523;SDS011;53689;56.878;60.672;2023-08-21T14:27:19;6.28;;;3.60;;
62523;SDS011;53689;56.878;60.672;2023-08-21T14:29:47;6.20;;;3.35;;
62523;SDS011;53689;56.878;60.672;2023-08-21T14:32:14;6.28;;;3.05;;
62523;SDS011;53689;56.878;60.672;2023-08-21T14:34:43;4.90;;;2.70;;
62523;SDS011;53689;56.878;60.672;2023-08-21T14:37:12;5.40;;;2.95;;
62523;SDS011;53689;56.878;60.672;2023-08-21T14:39:39;7.57;;;3.13;;
62523;SDS011;53689;56.878;60.672;2023-08-21T14:42:07;5.43;;;2.65;;
62523;SDS011;53689;56.878;60.672;2023-08-21T14:44:35;6.35;;;2.95;;
62523;SDS011;53689;56.878;60.672;2023-08-21T14:47:03;6.75;;;2.58;;